sensor_id;sensor_type;location;lat;lon;timestamp;P1;durP1;ratioP1;P2;durP2;ratioP2
11646;SDS011;5880;52.342;9.662;2023-02-18T00:00:17;6.87;;;1.50;;
11646;SDS011;5880;52.342;9.662;2023-02-18T00:02:45;2.90;;;1.30;;
11646;SDS011;5880;52.342;9.662;2023-02-18T00:05:12;4.63;;;1.20;;
11646;SDS011;5880;52.342;9.662;2023-02-18T00:07:38;4.37;;;1.30;;
11646;SDS011;5880;52.342;9.662;2023-02-18T00:10:06;2.30;;;1.13;;
11646;SDS011;5880;52.342;9.662;2023-02-18T00:12:35;3.80;;;1.23;;
11646;SDS011;5880;52.342;9.662;2023-02-18T00:15:01;5.30;;;1.37;;
11646;SDS011;5880;52.342;9.662;2023-02-18T00:17:27;2.43;;;1.13;;
11646;SDS011;5880;52.342;9.662;2023-02-18T00:19:54;4.10;;;1.20;;
11646;SDS011;5880;52.342;9.662;2023-02-18T00:22:21;4.87;;;1.40;;
11646;SDS011;5880;52.342;9.662;2023-02-18T00:24:47;3.97;;;1.20;;
11646;SDS011;5880;52.342;9.662;2023-02-18T00:27:13;4.07;;;1.10;;
11646;SDS011;5880;52.342;9.662;2023-02-18T00:29:39;5.60;;;1.37;;
11646;SDS011;5880;52.342;9.662;2023-02-18T00:32:05;6.37;;;1.40;;
11646;SDS011;5880;52.342;9.662;2023-02-18T00:34:31;4.53;;;1.20;;
11646;SDS011;5880;52.342;9.662;2023-02-18T00:36:56;8.90;;;1.60;;
11646;SDS011;5880;52.342;9.662;2023-02-18T00:39:22;3.60;;;1.10;;
11646;SDS011;5880;52.342;9.662;2023-02-18T00:41:48;5.57;;;1.57;;
11646;SDS011;5880;52.342;9.662;2023-02-18T00:44:13;6.03;;;1.30;;
11646;SDS011;5880;52.342;9.662;2023-02-18T00:46:39;6.27;;;1.30;;
11646;SDS011;5880;52.342;9.662;2023-02-18T00:49:05;4.37;;;1.30;;
11646;SDS011;5880;52.342;9.662;2023-02-18T00:51:32;1.97;;;1.03;;
11646;SDS011;5880;52.342;9.662;2023-02-18T00:53:58;3.40;;;1.37;;
11646;SDS011;5880;52.342;9.662;2023-02-18T00:56:24;3.93;;;1.30;;
11646;SDS011;5880;52.342;9.662;2023-02-18T00:58:50;5.63;;;1.37;;
11646;SDS011;5880;52.342;9.662;2023-02-18T01:01:16;3.40;;;1.30;;
11646;SDS011;5880;52.342;9.662;2023-02-18T01:03:43;2.70;;;1.20;;
11646;SDS011;5880;52.342;9.662;2023-02-18T01:06:09;2.57;;;1.20;;
11646;SDS011;5880;52.342;9.662;2023-02-18T01:08:36;2.93;;;1.23;;
11646;SDS011;5880;52.342;9.662;2023-02-18T01:11:04;2.87;;;1.13;;
11646;SDS011;5880;52.342;9.662;2023-02-18T01:13:32;4.23;;;1.47;;
11646;SDS011;5880;52.342;9.662;2023-02-18T01:15:58;4.30;;;1.00;;
11646;SDS011;5880;52.342;9.662;2023-02-18T01:18:24;3.07;;;1.20;;
11646;SDS011;5880;52.342;9.662;2023-02-18T01:20:51;3.33;;;1.20;;
11646;SDS011;5880;52.342;9.662;2023-02-18T01:23:17;6.97;;;1.50;;
11646;SDS011;5880;52.342;9.662;2023-02-18T01:25:43;3.67;;;1.10;;
11646;SDS011;5880;52.342;9.662;2023-02-18T01:28:10;3.57;;;1.20;;
11646;SDS011;5880;52.342;9.662;2023-02-18T01:30:38;3.53;;;1.23;;
11646;SDS011;5880;52.342;9.662;2023-02-18T01:33:05;4.73;;;1.63;;
11646;SDS011;5880;52.342;9.662;2023-02-18T01:35:32;3.07;;;1.10;;
11646;SDS011;5880;52.342;9.662;2023-02-18T01:37:58;3.50;;;1.33;;
11646;SDS011;5880;52.342;9.662;2023-02-18T01:40:26;6.57;;;1.10;;
11646;SDS011;5880;52.342;9.662;2023-02-18T01:42:53;2.07;;;1.00;;
11646;SDS011;5880;52.342;9.662;2023-02-18T01:45:37;4.87;;;1.20;;
11646;SDS011;5880;52.342;9.662;2023-02-18T01:48:17;6.23;;;1.50;;
11646;SDS011;5880;52.342;9.662;2023-02-18T01:51:02;4.37;;;1.13;;
11646;SDS011;5880;52.342;9.662;2023-02-18T01:56:30;2.53;;;1.00;;
11646;SDS011;5880;52.342;9.662;2023-02-18T01:59:08;4.10;;;1.10;;
11646;SDS011;5880;52.342;9.662;2023-02-18T02:01:41;4.43;;;1.13;;
11646;SDS011;5880;52.342;9.662;2023-02-18T02:04:09;2.77;;;1.30;;
11646;SDS011;5880;52.342;9.662;2023-02-18T02:06:38;3.80;;;1.40;;
11646;SDS011;5880;52.342;9.662;2023-02-18T02:09:04;3.53;;;1.30;;
11646;SDS011;5880;52.342;9.662;2023-02-18T02:17:23;6.27;;;1.60;;
11646;SDS011;5880;52.342;9.662;2023-02-18T02:37:46;4.30;;;1.40;;
11646;SDS011;5880;52.342;9.662;2023-02-18T02:40:30;3.07;;;1.27;;
11646;SDS011;5880;52.342;9.662;2023-02-18T02:43:38;4.50;;;1.60;;
11646;SDS011;5880;52.342;9.662;2023-02-18T02:46:27;5.13;;;1.57;;
11646;SDS011;5880;52.342;9.662;2023-02-18T02:52:32;4.80;;;1.70;;
11646;SDS011;5880;52.342;9.662;2023-02-18T02:55:08;5.77;;;1.50;;
11646;SDS011;5880;52.342;9.662;2023-02-18T03:00:07;4.37;;;1.67;;
11646;SDS011;5880;52.342;9.662;2023-02-18T03:02:41;4.63;;;1.90;;
11646;SDS011;5880;52.342;9.662;2023-02-18T03:06:00;5.37;;;2.00;;
11646;SDS011;5880;52.342;9.662;2023-02-18T03:11:47;4.23;;;1.80;;
11646;SDS011;5880;52.342;9.662;2023-02-18T03:14:36;5.77;;;1.70;;
11646;SDS011;5880;52.342;9.662;2023-02-18T03:20:43;4.90;;;2.20;;
11646;SDS011;5880;52.342;9.662;2023-02-18T03:23:19;5.20;;;2.47;;
11646;SDS011;5880;52.342;9.662;2023-02-18T03:25:59;6.63;;;3.10;;
11646;SDS011;5880;52.342;9.662;2023-02-18T03:28:28;6.33;;;3.37;;
11646;SDS011;5880;52.342;9.662;2023-02-18T03:30:58;5.33;;;3.13;;
11646;SDS011;5880;52.342;9.662;2023-02-18T03:33:32;10.13;;;4.13;;
11646;SDS011;5880;52.342;9.662;2023-02-18T03:36:06;7.40;;;3.97;;
11646;SDS011;5880;52.342;9.662;2023-02-18T03:41:11;9.93;;;4.30;;
11646;SDS011;5880;52.342;9.662;2023-02-18T03:43:39;7.33;;;4.33;;
11646;SDS011;5880;52.342;9.662;2023-02-18T03:46:12;6.87;;;4.67;;
11646;SDS011;5880;52.342;9.662;2023-02-18T03:48:38;8.63;;;5.23;;
11646;SDS011;5880;52.342;9.662;2023-02-18T03:51:04;8.90;;;5.80;;
11646;SDS011;5880;52.342;9.662;2023-02-18T03:53:30;11.07;;;6.00;;
11646;SDS011;5880;52.342;9.662;2023-02-18T03:55:55;7.87;;;5.60;;
11646;SDS011;5880;52.342;9.662;2023-02-18T03:58:21;9.50;;;6.17;;
11646;SDS011;5880;52.342;9.662;2023-02-18T04:00:46;10.27;;;6.47;;
11646;SDS011;5880;52.342;9.662;2023-02-18T04:03:12;9.77;;;6.80;;
11646;SDS011;5880;52.342;9.662;2023-02-18T04:05:38;10.93;;;7.90;;
11646;SDS011;5880;52.342;9.662;2023-02-18T04:08:03;11.23;;;7.37;;
11646;SDS011;5880;52.342;9.662;2023-02-18T04:10:29;10.03;;;7.00;;
11646;SDS011;5880;52.342;9.662;2023-02-18T04:12:55;9.80;;;7.27;;
11646;SDS011;5880;52.342;9.662;2023-02-18T04:15:21;11.20;;;7.83;;
11646;SDS011;5880;52.342;9.662;2023-02-18T04:17:46;12.03;;;8.00;;
11646;SDS011;5880;52.342;9.662;2023-02-18T04:20:12;14.17;;;8.67;;
11646;SDS011;5880;52.342;9.662;2023-02-18T04:22:37;11.87;;;8.67;;
11646;SDS011;5880;52.342;9.662;2023-02-18T04:25:04;12.23;;;8.23;;
11646;SDS011;5880;52.342;9.662;2023-02-18T04:27:30;12.93;;;8.77;;
11646;SDS011;5880;52.342;9.662;2023-02-18T04:29:55;14.63;;;9.77;;
11646;SDS011;5880;52.342;9.662;2023-02-18T04:32:21;14.47;;;9.23;;
11646;SDS011;5880;52.342;9.662;2023-02-18T04:34:47;11.47;;;9.07;;
11646;SDS011;5880;52.342;9.662;2023-02-18T04:37:12;12.57;;;9.07;;
11646;SDS011;5880;52.342;9.662;2023-02-18T04:39:38;12.83;;;9.40;;
11646;SDS011;5880;52.342;9.662;2023-02-18T04:42:04;13.00;;;10.00;;
11646;SDS011;5880;52.342;9.662;2023-02-18T04:44:33;15.47;;;9.60;;
11646;SDS011;5880;52.342;9.662;2023-02-18T04:47:00;13.73;;;9.73;;
11646;SDS011;5880;52.342;9.662;2023-02-18T04:49:28;14.13;;;10.60;;
11646;SDS011;5880;52.342;9.662;2023-02-18T04:51:54;12.60;;;9.83;;
11646;SDS011;5880;52.342;9.662;2023-02-18T04:54:20;15.17;;;10.57;;
11646;SDS011;5880;52.342;9.662;2023-02-18T04:56:46;14.47;;;10.27;;
11646;SDS011;5880;52.342;9.662;2023-02-18T04:59:12;13.50;;;10.40;;
11646;SDS011;5880;52.342;9.662;2023-02-18T05:01:37;16.30;;;11.20;;
11646;SDS011;5880;52.342;9.662;2023-02-18T05:04:03;17.10;;;12.03;;
11646;SDS011;5880;52.342;9.662;2023-02-18T05:06:29;13.43;;;10.17;;
11646;SDS011;5880;52.342;9.662;2023-02-18T05:08:54;15.00;;;10.63;;
11646;SDS011;5880;52.342;9.662;2023-02-18T05:11:20;15.63;;;10.80;;
11646;SDS011;5880;52.342;9.662;2023-02-18T05:13:46;13.60;;;10.77;;
11646;SDS011;5880;52.342;9.662;2023-02-18T05:16:11;15.87;;;11.03;;
11646;SDS011;5880;52.342;9.662;2023-02-18T05:18:37;13.23;;;10.20;;
11646;SDS011;5880;52.342;9.662;2023-02-18T05:21:04;14.93;;;10.50;;
11646;SDS011;5880;52.342;9.662;2023-02-18T05:23:30;14.97;;;10.67;;
11646;SDS011;5880;52.342;9.662;2023-02-18T05:25:56;15.87;;;11.67;;
11646;SDS011;5880;52.342;9.662;2023-02-18T05:28:22;14.77;;;10.93;;
11646;SDS011;5880;52.342;9.662;2023-02-18T05:30:48;16.43;;;12.03;;
11646;SDS011;5880;52.342;9.662;2023-02-18T05:33:14;15.17;;;11.43;;
11646;SDS011;5880;52.342;9.662;2023-02-18T05:35:39;15.73;;;11.43;;
11646;SDS011;5880;52.342;9.662;2023-02-18T05:38:05;16.27;;;11.53;;
11646;SDS011;5880;52.342;9.662;2023-02-18T05:40:31;16.97;;;11.07;;
11646;SDS011;5880;52.342;9.662;2023-02-18T05:42:56;16.00;;;11.47;;
11646;SDS011;5880;52.342;9.662;2023-02-18T05:45:22;15.17;;;11.73;;
11646;SDS011;5880;52.342;9.662;2023-02-18T05:47:47;16.47;;;10.93;;
11646;SDS011;5880;52.342;9.662;2023-02-18T05:50:13;13.70;;;9.90;;
11646;SDS011;5880;52.342;9.662;2023-02-18T05:52:39;11.73;;;9.57;;
11646;SDS011;5880;52.342;9.662;2023-02-18T05:55:05;11.37;;;9.33;;
11646;SDS011;5880;52.342;9.662;2023-02-18T05:57:31;9.57;;;7.67;;
11646;SDS011;5880;52.342;9.662;2023-02-18T05:59:56;11.47;;;8.47;;
11646;SDS011;5880;52.342;9.662;2023-02-18T06:02:22;11.40;;;7.70;;
11646;SDS011;5880;52.342;9.662;2023-02-18T06:04:47;10.77;;;7.47;;
11646;SDS011;5880;52.342;9.662;2023-02-18T06:07:13;7.83;;;6.53;;
11646;SDS011;5880;52.342;9.662;2023-02-18T06:09:39;9.20;;;7.07;;
11646;SDS011;5880;52.342;9.662;2023-02-18T06:12:05;11.10;;;7.60;;
11646;SDS011;5880;52.342;9.662;2023-02-18T06:14:31;9.40;;;6.90;;
11646;SDS011;5880;52.342;9.662;2023-02-18T06:16:56;10.53;;;7.27;;
11646;SDS011;5880;52.342;9.662;2023-02-18T06:19:22;8.93;;;6.90;;
11646;SDS011;5880;52.342;9.662;2023-02-18T06:21:48;10.87;;;7.67;;
11646;SDS011;5880;52.342;9.662;2023-02-18T06:24:13;10.70;;;6.93;;
11646;SDS011;5880;52.342;9.662;2023-02-18T06:26:39;10.90;;;7.53;;
11646;SDS011;5880;52.342;9.662;2023-02-18T06:29:05;9.83;;;7.70;;
11646;SDS011;5880;52.342;9.662;2023-02-18T06:31:30;10.03;;;7.70;;
11646;SDS011;5880;52.342;9.662;2023-02-18T06:33:56;10.83;;;8.00;;
11646;SDS011;5880;52.342;9.662;2023-02-18T06:36:22;10.13;;;7.67;;
11646;SDS011;5880;52.342;9.662;2023-02-18T06:38:47;10.83;;;8.33;;
11646;SDS011;5880;52.342;9.662;2023-02-18T06:41:13;11.03;;;7.63;;
11646;SDS011;5880;52.342;9.662;2023-02-18T06:43:39;11.10;;;8.20;;
11646;SDS011;5880;52.342;9.662;2023-02-18T06:46:05;11.30;;;7.67;;
11646;SDS011;5880;52.342;9.662;2023-02-18T06:48:32;9.70;;;7.57;;
11646;SDS011;5880;52.342;9.662;2023-02-18T06:50:58;11.80;;;7.90;;
11646;SDS011;5880;52.342;9.662;2023-02-18T06:53:24;10.00;;;7.53;;
11646;SDS011;5880;52.342;9.662;2023-02-18T06:55:50;10.70;;;7.77;;
11646;SDS011;5880;52.342;9.662;2023-02-18T06:58:15;9.50;;;6.37;;
11646;SDS011;5880;52.342;9.662;2023-02-18T07:00:41;10.43;;;7.30;;
11646;SDS011;5880;52.342;9.662;2023-02-18T07:03:07;10.43;;;7.27;;
11646;SDS011;5880;52.342;9.662;2023-02-18T07:05:35;10.57;;;7.07;;
11646;SDS011;5880;52.342;9.662;2023-02-18T07:08:00;8.93;;;6.47;;
11646;SDS011;5880;52.342;9.662;2023-02-18T07:10:26;8.57;;;5.90;;
11646;SDS011;5880;52.342;9.662;2023-02-18T07:12:52;8.47;;;5.90;;
11646;SDS011;5880;52.342;9.662;2023-02-18T07:15:17;8.07;;;5.80;;
11646;SDS011;5880;52.342;9.662;2023-02-18T07:17:48;7.23;;;5.67;;
11646;SDS011;5880;52.342;9.662;2023-02-18T07:20:16;7.70;;;5.80;;
11646;SDS011;5880;52.342;9.662;2023-02-18T07:22:43;7.40;;;5.77;;
11646;SDS011;5880;52.342;9.662;2023-02-18T07:25:09;8.00;;;6.00;;
11646;SDS011;5880;52.342;9.662;2023-02-18T07:27:34;7.63;;;5.50;;
11646;SDS011;5880;52.342;9.662;2023-02-18T07:30:00;6.43;;;5.20;;
11646;SDS011;5880;52.342;9.662;2023-02-18T07:32:25;6.83;;;5.40;;
11646;SDS011;5880;52.342;9.662;2023-02-18T07:34:51;7.13;;;5.40;;
11646;SDS011;5880;52.342;9.662;2023-02-18T07:37:18;6.93;;;5.60;;
11646;SDS011;5880;52.342;9.662;2023-02-18T07:39:45;6.50;;;5.30;;
11646;SDS011;5880;52.342;9.662;2023-02-18T07:42:11;7.53;;;5.77;;
11646;SDS011;5880;52.342;9.662;2023-02-18T07:44:38;6.00;;;4.73;;
11646;SDS011;5880;52.342;9.662;2023-02-18T07:47:05;6.00;;;4.97;;
11646;SDS011;5880;52.342;9.662;2023-02-18T07:49:34;5.50;;;4.73;;
11646;SDS011;5880;52.342;9.662;2023-02-18T07:52:00;5.87;;;4.80;;
11646;SDS011;5880;52.342;9.662;2023-02-18T07:54:26;5.80;;;4.80;;
11646;SDS011;5880;52.342;9.662;2023-02-18T07:56:52;5.10;;;4.27;;
11646;SDS011;5880;52.342;9.662;2023-02-18T07:59:18;5.13;;;3.83;;
11646;SDS011;5880;52.342;9.662;2023-02-18T08:01:44;4.67;;;3.47;;
11646;SDS011;5880;52.342;9.662;2023-02-18T08:04:10;5.20;;;3.70;;
11646;SDS011;5880;52.342;9.662;2023-02-18T08:06:40;4.43;;;3.20;;
11646;SDS011;5880;52.342;9.662;2023-02-18T08:09:10;3.87;;;2.83;;
11646;SDS011;5880;52.342;9.662;2023-02-18T08:11:37;4.00;;;3.10;;
11646;SDS011;5880;52.342;9.662;2023-02-18T08:14:03;3.20;;;2.50;;
11646;SDS011;5880;52.342;9.662;2023-02-18T08:16:29;3.97;;;2.80;;
11646;SDS011;5880;52.342;9.662;2023-02-18T08:18:55;3.27;;;2.10;;
11646;SDS011;5880;52.342;9.662;2023-02-18T08:21:23;2.43;;;2.10;;
11646;SDS011;5880;52.342;9.662;2023-02-18T08:23:50;2.87;;;2.10;;
11646;SDS011;5880;52.342;9.662;2023-02-18T08:26:16;2.13;;;1.70;;
11646;SDS011;5880;52.342;9.662;2023-02-18T08:28:43;2.70;;;1.80;;
11646;SDS011;5880;52.342;9.662;2023-02-18T08:31:21;1.73;;;1.57;;
11646;SDS011;5880;52.342;9.662;2023-02-18T08:33:50;1.73;;;1.47;;
11646;SDS011;5880;52.342;9.662;2023-02-18T08:36:17;1.73;;;1.40;;
11646;SDS011;5880;52.342;9.662;2023-02-18T08:38:44;1.50;;;1.40;;
11646;SDS011;5880;52.342;9.662;2023-02-18T08:41:10;1.50;;;1.40;;
11646;SDS011;5880;52.342;9.662;2023-02-18T08:43:38;1.30;;;1.20;;
11646;SDS011;5880;52.342;9.662;2023-02-18T08:46:04;1.43;;;1.33;;
11646;SDS011;5880;52.342;9.662;2023-02-18T08:48:30;1.47;;;1.30;;
11646;SDS011;5880;52.342;9.662;2023-02-18T08:50:56;1.40;;;1.30;;
11646;SDS011;5880;52.342;9.662;2023-02-18T08:53:23;1.70;;;1.30;;
11646;SDS011;5880;52.342;9.662;2023-02-18T08:55:49;1.40;;;1.30;;
11646;SDS011;5880;52.342;9.662;2023-02-18T08:58:14;1.40;;;1.30;;
11646;SDS011;5880;52.342;9.662;2023-02-18T09:00:41;1.50;;;1.40;;
11646;SDS011;5880;52.342;9.662;2023-02-18T09:03:11;1.83;;;1.67;;
11646;SDS011;5880;52.342;9.662;2023-02-18T09:05:38;1.40;;;1.30;;
11646;SDS011;5880;52.342;9.662;2023-02-18T09:08:04;1.67;;;1.57;;
11646;SDS011;5880;52.342;9.662;2023-02-18T09:10:30;2.37;;;1.90;;
11646;SDS011;5880;52.342;9.662;2023-02-18T09:12:56;1.53;;;1.43;;
11646;SDS011;5880;52.342;9.662;2023-02-18T09:15:21;1.30;;;1.20;;
11646;SDS011;5880;52.342;9.662;2023-02-18T09:17:47;1.50;;;1.40;;
11646;SDS011;5880;52.342;9.662;2023-02-18T09:20:12;1.20;;;1.10;;
11646;SDS011;5880;52.342;9.662;2023-02-18T09:22:38;1.40;;;1.30;;
11646;SDS011;5880;52.342;9.662;2023-02-18T09:25:04;1.17;;;1.07;;
11646;SDS011;5880;52.342;9.662;2023-02-18T09:27:31;1.30;;;1.20;;
11646;SDS011;5880;52.342;9.662;2023-02-18T09:29:57;1.10;;;1.00;;
11646;SDS011;5880;52.342;9.662;2023-02-18T09:32:22;1.00;;;1.00;;
11646;SDS011;5880;52.342;9.662;2023-02-18T09:34:48;1.10;;;0.83;;
11646;SDS011;5880;52.342;9.662;2023-02-18T09:37:13;1.10;;;1.00;;
11646;SDS011;5880;52.342;9.662;2023-02-18T09:39:39;0.90;;;0.83;;
11646;SDS011;5880;52.342;9.662;2023-02-18T09:42:15;0.97;;;0.97;;
11646;SDS011;5880;52.342;9.662;2023-02-18T09:44:51;0.90;;;0.90;;
11646;SDS011;5880;52.342;9.662;2023-02-18T09:47:29;0.90;;;0.90;;
11646;SDS011;5880;52.342;9.662;2023-02-18T09:50:17;0.87;;;0.87;;
11646;SDS011;5880;52.342;9.662;2023-02-18T09:52:52;0.70;;;0.70;;
11646;SDS011;5880;52.342;9.662;2023-02-18T09:55:20;0.70;;;0.70;;
11646;SDS011;5880;52.342;9.662;2023-02-18T09:58:04;0.97;;;0.70;;
11646;SDS011;5880;52.342;9.662;2023-02-18T10:00:40;1.00;;;0.90;;
11646;SDS011;5880;52.342;9.662;2023-02-18T10:03:14;0.70;;;0.70;;
11646;SDS011;5880;52.342;9.662;2023-02-18T10:05:53;0.70;;;0.70;;
11646;SDS011;5880;52.342;9.662;2023-02-18T10:08:30;0.70;;;0.70;;
11646;SDS011;5880;52.342;9.662;2023-02-18T10:11:02;0.70;;;0.70;;
11646;SDS011;5880;52.342;9.662;2023-02-18T10:13:34;0.70;;;0.70;;
11646;SDS011;5880;52.342;9.662;2023-02-18T10:16:00;0.73;;;0.73;;
11646;SDS011;5880;52.342;9.662;2023-02-18T10:18:29;0.47;;;0.47;;
11646;SDS011;5880;52.342;9.662;2023-02-18T10:21:06;0.60;;;0.60;;
11646;SDS011;5880;52.342;9.662;2023-02-18T10:24:32;0.50;;;0.50;;
11646;SDS011;5880;52.342;9.662;2023-02-18T10:26:55;0.50;;;0.50;;
11646;SDS011;5880;52.342;9.662;2023-02-18T10:29:22;1.07;;;0.77;;
11646;SDS011;5880;52.342;9.662;2023-02-18T10:34:29;0.77;;;0.50;;
11646;SDS011;5880;52.342;9.662;2023-02-18T10:37:18;1.33;;;0.50;;
11646;SDS011;5880;52.342;9.662;2023-02-18T10:42:47;0.47;;;0.47;;
11646;SDS011;5880;52.342;9.662;2023-02-18T10:49:03;0.70;;;0.70;;
11646;SDS011;5880;52.342;9.662;2023-02-18T10:52:08;0.40;;;0.40;;
11646;SDS011;5880;52.342;9.662;2023-02-18T10:55:15;0.50;;;0.50;;
11646;SDS011;5880;52.342;9.662;2023-02-18T10:57:46;0.40;;;0.40;;
11646;SDS011;5880;52.342;9.662;2023-02-18T11:00:20;0.30;;;0.30;;
11646;SDS011;5880;52.342;9.662;2023-02-18T11:03:12;0.77;;;0.40;;
11646;SDS011;5880;52.342;9.662;2023-02-18T11:06:03;0.90;;;0.70;;
11646;SDS011;5880;52.342;9.662;2023-02-18T11:08:41;1.70;;;0.60;;
11646;SDS011;5880;52.342;9.662;2023-02-18T11:11:43;1.13;;;0.80;;
11646;SDS011;5880;52.342;9.662;2023-02-18T11:14:04;0.63;;;0.63;;
11646;SDS011;5880;52.342;9.662;2023-02-18T11:16:51;0.60;;;0.60;;
11646;SDS011;5880;52.342;9.662;2023-02-18T11:19:29;0.60;;;0.60;;
11646;SDS011;5880;52.342;9.662;2023-02-18T11:22:06;0.90;;;0.90;;
11646;SDS011;5880;52.342;9.662;2023-02-18T11:24:44;0.90;;;0.90;;
11646;SDS011;5880;52.342;9.662;2023-02-18T11:29:55;0.90;;;0.90;;
11646;SDS011;5880;52.342;9.662;2023-02-18T11:32:33;1.00;;;0.77;;
11646;SDS011;5880;52.342;9.662;2023-02-18T11:35:02;0.80;;;0.80;;
11646;SDS011;5880;52.342;9.662;2023-02-18T11:37:38;0.90;;;0.90;;
11646;SDS011;5880;52.342;9.662;2023-02-18T11:40:04;0.70;;;0.70;;
11646;SDS011;5880;52.342;9.662;2023-02-18T11:42:31;0.70;;;0.70;;
11646;SDS011;5880;52.342;9.662;2023-02-18T11:44:57;0.80;;;0.73;;
11646;SDS011;5880;52.342;9.662;2023-02-18T11:47:34;0.70;;;0.70;;
11646;SDS011;5880;52.342;9.662;2023-02-18T11:52:34;0.70;;;0.70;;
11646;SDS011;5880;52.342;9.662;2023-02-18T11:55:14;0.93;;;0.80;;
11646;SDS011;5880;52.342;9.662;2023-02-18T12:00:29;0.67;;;0.57;;
11646;SDS011;5880;52.342;9.662;2023-02-18T12:06:27;0.73;;;0.73;;
11646;SDS011;5880;52.342;9.662;2023-02-18T12:09:16;0.77;;;0.77;;
11646;SDS011;5880;52.342;9.662;2023-02-18T12:12:04;0.50;;;0.50;;
11646;SDS011;5880;52.342;9.662;2023-02-18T12:14:39;0.60;;;0.60;;
11646;SDS011;5880;52.342;9.662;2023-02-18T12:25:12;0.80;;;0.80;;
11646;SDS011;5880;52.342;9.662;2023-02-18T12:27:53;0.70;;;0.70;;
11646;SDS011;5880;52.342;9.662;2023-02-18T12:30:55;0.70;;;0.63;;
11646;SDS011;5880;52.342;9.662;2023-02-18T12:33:47;0.47;;;0.47;;
11646;SDS011;5880;52.342;9.662;2023-02-18T12:36:55;1.53;;;0.80;;
11646;SDS011;5880;52.342;9.662;2023-02-18T12:39:53;0.57;;;0.53;;
11646;SDS011;5880;52.342;9.662;2023-02-18T12:42:47;0.60;;;0.60;;
11646;SDS011;5880;52.342;9.662;2023-02-18T12:45:35;0.70;;;0.70;;
11646;SDS011;5880;52.342;9.662;2023-02-18T12:56:50;0.80;;;0.80;;
11646;SDS011;5880;52.342;9.662;2023-02-18T13:04:45;1.10;;;1.00;;
11646;SDS011;5880;52.342;9.662;2023-02-18T13:10:41;1.17;;;0.93;;
11646;SDS011;5880;52.342;9.662;2023-02-18T13:13:40;1.83;;;1.10;;
11646;SDS011;5880;52.342;9.662;2023-02-18T13:16:17;0.90;;;0.90;;
11646;SDS011;5880;52.342;9.662;2023-02-18T13:21:20;1.33;;;1.00;;
11646;SDS011;5880;52.342;9.662;2023-02-18T13:23:57;0.93;;;0.93;;
11646;SDS011;5880;52.342;9.662;2023-02-18T13:26:30;0.93;;;0.80;;
11646;SDS011;5880;52.342;9.662;2023-02-18T13:29:13;1.43;;;1.10;;
11646;SDS011;5880;52.342;9.662;2023-02-18T13:34:59;1.33;;;1.10;;
11646;SDS011;5880;52.342;9.662;2023-02-18T13:38:02;1.30;;;0.90;;
11646;SDS011;5880;52.342;9.662;2023-02-18T13:40:55;1.60;;;1.00;;
11646;SDS011;5880;52.342;9.662;2023-02-18T13:46:02;1.10;;;1.00;;
11646;SDS011;5880;52.342;9.662;2023-02-18T13:48:33;1.57;;;1.10;;
11646;SDS011;5880;52.342;9.662;2023-02-18T13:51:11;1.63;;;1.00;;
11646;SDS011;5880;52.342;9.662;2023-02-18T13:53:53;1.60;;;1.13;;
11646;SDS011;5880;52.342;9.662;2023-02-18T13:56:30;1.57;;;1.40;;
11646;SDS011;5880;52.342;9.662;2023-02-18T13:59:00;1.47;;;1.37;;
11646;SDS011;5880;52.342;9.662;2023-02-18T14:01:56;1.30;;;1.20;;
11646;SDS011;5880;52.342;9.662;2023-02-18T14:10:23;2.73;;;1.73;;
11646;SDS011;5880;52.342;9.662;2023-02-18T14:23:10;2.40;;;1.83;;
11646;SDS011;5880;52.342;9.662;2023-02-18T14:25:47;2.90;;;2.20;;
11646;SDS011;5880;52.342;9.662;2023-02-18T14:31:00;2.20;;;1.57;;
11646;SDS011;5880;52.342;9.662;2023-02-18T14:37:09;1.57;;;1.43;;
11646;SDS011;5880;52.342;9.662;2023-02-18T14:40:03;1.93;;;1.63;;
11646;SDS011;5880;52.342;9.662;2023-02-18T14:42:47;2.17;;;1.90;;
11646;SDS011;5880;52.342;9.662;2023-02-18T14:45:32;2.43;;;1.93;;
11646;SDS011;5880;52.342;9.662;2023-02-18T14:51:17;2.13;;;1.80;;
11646;SDS011;5880;52.342;9.662;2023-02-18T14:53:48;1.97;;;1.40;;
11646;SDS011;5880;52.342;9.662;2023-02-18T14:56:15;3.27;;;2.40;;
11646;SDS011;5880;52.342;9.662;2023-02-18T14:58:45;2.57;;;1.97;;
11646;SDS011;5880;52.342;9.662;2023-02-18T15:01:18;2.57;;;1.70;;
11646;SDS011;5880;52.342;9.662;2023-02-18T15:03:54;2.47;;;1.90;;
11646;SDS011;5880;52.342;9.662;2023-02-18T15:08:53;2.00;;;1.70;;
11646;SDS011;5880;52.342;9.662;2023-02-18T15:11:23;3.20;;;1.60;;
11646;SDS011;5880;52.342;9.662;2023-02-18T15:14:03;3.27;;;2.00;;
11646;SDS011;5880;52.342;9.662;2023-02-18T15:16:42;2.43;;;1.60;;
11646;SDS011;5880;52.342;9.662;2023-02-18T15:19:12;2.90;;;2.00;;
11646;SDS011;5880;52.342;9.662;2023-02-18T15:21:48;2.77;;;1.77;;
11646;SDS011;5880;52.342;9.662;2023-02-18T15:24:29;3.80;;;2.27;;
11646;SDS011;5880;52.342;9.662;2023-02-18T15:27:02;2.13;;;1.83;;
11646;SDS011;5880;52.342;9.662;2023-02-18T15:29:51;3.43;;;2.13;;
11646;SDS011;5880;52.342;9.662;2023-02-18T15:32:23;3.60;;;2.30;;
11646;SDS011;5880;52.342;9.662;2023-02-18T15:34:56;2.33;;;2.13;;
11646;SDS011;5880;52.342;9.662;2023-02-18T15:37:26;3.93;;;2.00;;
11646;SDS011;5880;52.342;9.662;2023-02-18T15:39:53;2.30;;;1.97;;
11646;SDS011;5880;52.342;9.662;2023-02-18T15:42:26;4.00;;;2.47;;
11646;SDS011;5880;52.342;9.662;2023-02-18T15:45:04;3.80;;;2.60;;
11646;SDS011;5880;52.342;9.662;2023-02-18T15:47:46;4.03;;;2.27;;
11646;SDS011;5880;52.342;9.662;2023-02-18T15:52:55;4.33;;;2.70;;
11646;SDS011;5880;52.342;9.662;2023-02-18T15:55:32;3.27;;;2.07;;
11646;SDS011;5880;52.342;9.662;2023-02-18T15:58:03;3.57;;;2.40;;
11646;SDS011;5880;52.342;9.662;2023-02-18T16:00:38;4.67;;;2.60;;
11646;SDS011;5880;52.342;9.662;2023-02-18T16:03:21;3.03;;;2.67;;
11646;SDS011;5880;52.342;9.662;2023-02-18T16:11:43;3.43;;;2.13;;
11646;SDS011;5880;52.342;9.662;2023-02-18T16:19:42;3.53;;;2.73;;
11646;SDS011;5880;52.342;9.662;2023-02-18T16:25:07;4.83;;;2.50;;
11646;SDS011;5880;52.342;9.662;2023-02-18T16:27:48;7.07;;;3.03;;
11646;SDS011;5880;52.342;9.662;2023-02-18T16:30:18;4.30;;;2.33;;
11646;SDS011;5880;52.342;9.662;2023-02-18T16:32:47;5.40;;;2.50;;
11646;SDS011;5880;52.342;9.662;2023-02-18T16:35:13;3.40;;;2.40;;
11646;SDS011;5880;52.342;9.662;2023-02-18T16:37:40;4.13;;;2.87;;
11646;SDS011;5880;52.342;9.662;2023-02-18T16:40:30;3.53;;;1.93;;
11646;SDS011;5880;52.342;9.662;2023-02-18T16:43:15;3.07;;;2.40;;
11646;SDS011;5880;52.342;9.662;2023-02-18T16:45:44;2.93;;;2.20;;
11646;SDS011;5880;52.342;9.662;2023-02-18T16:48:26;3.03;;;2.40;;
11646;SDS011;5880;52.342;9.662;2023-02-18T16:51:00;3.77;;;2.13;;
11646;SDS011;5880;52.342;9.662;2023-02-18T16:53:30;4.10;;;2.13;;
11646;SDS011;5880;52.342;9.662;2023-02-18T16:55:56;4.57;;;2.30;;
11646;SDS011;5880;52.342;9.662;2023-02-18T16:58:22;5.10;;;2.17;;
11646;SDS011;5880;52.342;9.662;2023-02-18T17:00:48;5.50;;;2.17;;
11646;SDS011;5880;52.342;9.662;2023-02-18T17:03:16;5.23;;;2.07;;
11646;SDS011;5880;52.342;9.662;2023-02-18T17:05:43;2.97;;;2.00;;
11646;SDS011;5880;52.342;9.662;2023-02-18T17:08:25;5.87;;;2.03;;
11646;SDS011;5880;52.342;9.662;2023-02-18T17:10:52;3.10;;;2.10;;
11646;SDS011;5880;52.342;9.662;2023-02-18T17:13:21;3.27;;;2.07;;
11646;SDS011;5880;52.342;9.662;2023-02-18T17:15:51;4.23;;;2.07;;
11646;SDS011;5880;52.342;9.662;2023-02-18T17:18:20;6.00;;;2.30;;
11646;SDS011;5880;52.342;9.662;2023-02-18T17:20:48;4.57;;;2.37;;
11646;SDS011;5880;52.342;9.662;2023-02-18T17:23:20;4.03;;;2.13;;
11646;SDS011;5880;52.342;9.662;2023-02-18T17:25:48;3.47;;;2.10;;
11646;SDS011;5880;52.342;9.662;2023-02-18T17:28:16;4.13;;;2.17;;
11646;SDS011;5880;52.342;9.662;2023-02-18T17:30:44;5.70;;;2.50;;
11646;SDS011;5880;52.342;9.662;2023-02-18T17:33:16;6.37;;;2.67;;
11646;SDS011;5880;52.342;9.662;2023-02-18T17:35:43;3.30;;;1.90;;
11646;SDS011;5880;52.342;9.662;2023-02-18T17:38:14;4.87;;;2.20;;
11646;SDS011;5880;52.342;9.662;2023-02-18T17:40:42;4.60;;;2.43;;
11646;SDS011;5880;52.342;9.662;2023-02-18T17:43:14;4.97;;;2.03;;